Time;durP1;ratioP1;P1;durP2;ratioP2;P2;SDS_P1;SDS_P2;PMS_P1;PMS_P2;Temp;Humidity;BMP_temperature;BMP_pressure;BME280_temperature;BME280_humidity;BME280_pressure;Samples;Min_cycle;Max_cycle;Signal;HPM_P1;HPM_P2
2022/08/10 00:00:42;;;;;;;23.10;11.40;;;;;;;17.60;76.47;100220.88;6250511;22;20015;-85
2022/08/10 00:03:09;;;;;;;22.17;10.90;;;;;;;17.63;76.45;100224.94;6282689;22;20079;-96
2022/08/10 00:08:05;;;;;;;22.73;10.98;;;;;;;17.76;76.15;100241.28;6283135;22;20377;-90
2022/08/10 00:10:31;;;;;;;25.90;10.88;;;;;;;17.63;76.50;100214.69;6205121;22;20016;-86
2022/08/10 00:12:57;;;;;;;20.17;10.40;;;;;;;17.77;76.22;100234.59;6284945;22;20388;-89
2022/08/10 00:15:24;;;;;;;26.85;10.05;;;;;;;17.77;76.38;100236.53;6235874;22;20335;-96
2022/08/10 00:20:19;;;;;;;21.52;10.75;;;;;;;17.76;76.01;100232.97;6283062;22;20016;-93
2022/08/10 00:22:46;;;;;;;17.40;10.52;;;;;;;17.81;76.48;100243.84;6285164;22;20038;-87
2022/08/10 00:25:12;;;;;;;;;;;;;;;17.82;76.68;100245.44;6283024;22;20021;-94
2022/08/10 00:27:39;;;;;;;15.85;9.23;;;;;;;17.79;76.15;100237.81;6281046;22;19911;-89
2022/08/10 00:30:06;;;;;;;15.98;10.00;;;;;;;17.74;76.00;100226.13;6259562;22;20015;-88
2022/08/10 00:35:02;;;;;;;19.23;9.75;;;;;;;17.75;75.85;100239.63;6288765;22;20020;-87
2022/08/10 00:37:29;;;;;;;16.38;8.95;;;;;;;17.70;76.08;100242.59;6260047;22;20019;-87
2022/08/10 00:40:04;;;;;;;15.98;8.32;;;;;;;17.77;75.96;100244.84;6262844;22;20016;-90
2022/08/10 00:42:39;;;;;;;13.48;7.97;;;;;;;17.77;75.90;100255.91;6264832;22;20016;-87
2022/08/10 00:45:13;;;;;;;19.30;9.00;;;;;;;17.66;76.24;100249.94;6288375;22;20023;-96
2022/08/10 00:47:40;;;;;;;17.02;8.60;;;;;;;17.69;76.03;100252.03;6212877;22;20015;-87
2022/08/10 00:50:07;;;;;;;21.80;8.93;;;;;;;17.61;76.25;100239.91;6210191;22;20179;-94
2022/08/10 00:52:35;;;;;;;15.45;8.43;;;;;;;17.75;75.90;100244.34;6284395;22;20462;-95
2022/08/10 00:55:03;;;;;;;11.45;7.82;;;;;;;17.70;75.70;100239.03;6232966;22;20012;-87
2022/08/10 01:00:02;;;;;;;16.70;8.75;;;;;;;17.58;75.67;100220.41;6284267;22;20031;-87
2022/08/10 01:02:45;;;;;;;11.98;7.82;;;;;;;17.69;75.84;100234.66;6217513;22;20026;-93
2022/08/10 01:05:13;;;;;;;11.60;7.15;;;;;;;17.53;75.99;100212.31;6238003;22;20019;-87
2022/08/10 01:08:06;;;;;;;16.60;8.32;;;;;;;17.73;75.81;100222.56;6287102;22;20030;-86
2022/08/10 01:11:16;;;;;;;16.05;7.68;;;;;;;17.82;75.71;100234.38;6206548;22;20110;-86
2022/08/10 01:14:02;;;;;;;14.60;8.13;;;;;;;17.72;75.34;100225.69;6114300;23;20024;-86
2022/08/10 01:16:35;;;;;;;19.25;7.80;;;;;;;17.79;75.37;100229.53;6187185;23;20013;-93
2022/08/10 01:19:35;;;;;;;21.83;9.23;;;;;;;17.80;74.78;100233.09;6161938;23;20100;-88
2022/08/10 01:22:30;;;;;;;19.40;7.72;;;;;;;17.70;74.80;100211.38;6186112;23;20021;-87
2022/08/10 01:25:15;;;;;;;16.48;7.75;;;;;;;17.85;75.45;100224.59;6186273;23;20040;-88
2022/08/10 01:27:56;;;;;;;14.38;7.70;;;;;;;17.57;75.18;100191.94;6134810;23;20371;-92
2022/08/10 01:30:26;;;;;;;22.98;7.63;;;;;;;17.51;75.12;100184.19;6138009;23;20367;-87
2022/08/10 01:32:58;;;;;;;12.02;7.55;;;;;;;17.69;74.88;100232.69;6140210;23;20021;-89
2022/08/10 01:35:37;;;;;;;16.05;7.85;;;;;;;17.56;75.10;100211.66;6189636;23;20021;-96
2022/08/10 01:38:06;;;;;;;11.35;7.40;;;;;;;17.63;75.08;100230.47;6189555;23;20076;-96
2022/08/10 01:40:55;;;;;;;16.13;6.82;;;;;;;17.52;75.13;100228.09;6139529;23;20086;-89
2022/08/10 01:43:26;;;;;;;10.18;6.50;;;;;;;17.51;75.06;100229.22;6193755;23;20028;-88
2022/08/10 01:45:56;;;;;;;13.75;6.95;;;;;;;17.54;75.28;100236.06;6141769;23;20056;-88
2022/08/10 01:49:11;;;;;;;16.50;6.72;;;;;;;17.51;75.09;100240.28;6196824;23;20020;-86
2022/08/10 01:52:00;;;;;;;16.73;6.57;;;;;;;17.57;75.99;100252.78;6289134;22;20016;-86
2022/08/10 01:56:59;;;;;;;11.35;6.50;;;;;;;17.22;75.56;100201.66;6287608;22;20014;-86
2022/08/10 01:59:34;;;;;;;21.98;6.90;;;;;;;17.44;75.74;100237.25;6256000;22;20019;-93
2022/08/10 02:02:25;;;;;;;13.60;5.93;;;;;;;17.58;75.21;100257.19;6229800;22;20031;-85
2022/08/10 02:04:53;;;;;;;13.63;6.15;;;;;;;17.55;75.41;100243.22;6291335;22;20015;-91
2022/08/10 02:07:24;;;;;;;10.20;6.05;;;;;;;17.54;75.33;100247.91;6238646;22;20019;-85
2022/08/10 02:10:09;;;;;;;11.25;5.65;;;;;;;17.40;75.09;100222.50;6198878;22;20476;-85
2022/08/10 02:12:38;;;;;;;13.30;5.85;;;;;;;17.64;75.50;100259.72;6211143;22;20118;-90
2022/08/10 02:15:09;;;;;;;9.35;5.28;;;;;;;17.68;75.16;100263.44;6287800;22;20063;-86
2022/08/10 02:18:09;;;;;;;12.40;6.20;;;;;;;17.69;74.74;100257.56;6213108;22;20023;-86
2022/08/10 02:21:02;;;;;;;16.48;5.45;;;;;;;17.65;74.79;100248.34;6287141;22;20477;-86
2022/08/10 02:23:31;;;;;;;10.10;5.85;;;;;;;17.76;74.62;100266.16;6212182;22;20107;-87
2022/08/10 02:26:03;;;;;;;11.15;6.13;;;;;;;17.79;74.24;100264.69;6190838;22;20070;-86
2022/08/10 02:28:32;;;;;;;12.45;6.40;;;;;;;17.77;74.50;100256.72;6261668;22;20023;-92
2022/08/10 02:31:23;;;;;;;19.08;6.13;;;;;;;17.68;74.10;100235.78;6292940;22;20334;-86
2022/08/10 02:33:51;;;;;;;11.52;6.30;;;;;;;17.92;74.17;100268.31;6261139;22;20015;-92
2022/08/10 02:36:18;;;;;;;18.13;6.93;;;;;;;17.96;74.45;100274.78;6255835;22;20417;-87
2022/08/10 02:38:49;;;;;;;16.38;7.00;;;;;;;17.83;74.53;100238.75;6204669;22;20062;-92
2022/08/10 02:41:50;;;;;;;13.55;6.00;;;;;;;17.81;73.91;100240.25;6209260;22;20020;-93
2022/08/10 02:44:41;;;;;;;19.17;6.82;;;;;;;17.84;73.73;100240.38;6235447;22;20028;-86
2022/08/10 02:47:16;;;;;;;17.25;6.80;;;;;;;17.88;73.99;100242.47;6262978;22;20015;-90
2022/08/10 02:50:32;;;;;;;15.82;7.15;;;;;;;17.99;73.76;100252.78;6283439;22;20015;-96
2022/08/10 02:53:04;;;;;;;30.98;7.25;;;;;;;18.11;74.00;100263.06;6270829;22;20132;-96
2022/08/10 02:55:39;;;;;;;15.52;6.88;;;;;;;18.00;73.34;100254.38;6256097;22;20075;-93
2022/08/10 02:58:23;;;;;;;16.63;6.53;;;;;;;17.94;73.46;100235.56;6281002;22;20025;-96
2022/08/10 03:00:54;;;;;;;12.88;6.82;;;;;;;18.16;73.30;100267.59;6280435;22;20093;-94
2022/08/10 03:03:27;;;;;;;16.92;6.55;;;;;;;18.05;73.66;100256.16;6205287;22;20019;-87
2022/08/10 03:05:59;;;;;;;12.20;6.93;;;;;;;18.02;73.60;100251.31;6207096;22;20517;-93
2022/08/10 03:08:32;;;;;;;13.90;6.72;;;;;;;18.17;73.29;100271.97;6284342;22;20035;-87
2022/08/10 03:11:04;;;;;;;19.02;7.53;;;;;;;18.14;73.33;100275.44;6235967;22;20020;-93
2022/08/10 03:13:33;;;;;;;14.25;7.43;;;;;;;17.85;73.51;100216.31;6257890;22;20027;-90
2022/08/10 03:16:03;;;;;;;15.77;7.88;;;;;;;18.23;73.26;100273.38;6259228;22;20425;-89
2022/08/10 03:18:33;;;;;;;13.27;7.50;;;;;;;18.21;73.49;100273.75;6286029;22;20026;-85
2022/08/10 03:21:00;;;;;;;24.95;7.82;;;;;;;18.17;73.51;100269.22;6281793;22;20043;-87
2022/08/10 03:23:27;;;;;;;17.27;7.55;;;;;;;18.07;73.88;100262.13;6210424;22;20105;-86
2022/08/10 03:25:57;;;;;;;16.98;8.23;;;;;;;18.12;74.02;100272.22;6285308;22;20016;-94
2022/08/10 03:28:32;;;;;;;14.80;8.07;;;;;;;17.91;74.25;100239.81;6229499;22;20016;-96
2022/08/10 03:31:01;;;;;;;19.10;8.25;;;;;;;18.08;74.21;100270.13;6287297;22;20020;-89
2022/08/10 03:33:32;;;;;;;15.45;8.20;;;;;;;18.08;74.24;100269.31;6210427;22;20459;-87
2022/08/10 03:38:26;;;;;;;18.63;8.15;;;;;;;17.92;74.15;100249.75;6270720;22;20389;-95
2022/08/10 03:40:55;;;;;;;21.92;8.38;;;;;;;17.93;75.01;100256.91;6258774;22;20026;-87
2022/08/10 03:43:23;;;;;;;20.88;8.00;;;;;;;17.85;74.60;100257.81;6231403;22;20024;-89
2022/08/10 03:45:53;;;;;;;18.70;8.38;;;;;;;17.91;74.47;100272.22;6253610;22;20022;-93
2022/08/10 03:48:41;;;;;;;20.63;8.32;;;;;;;17.79;74.41;100254.44;6256593;22;20046;-93
2022/08/10 03:51:26;;;;;;;15.30;8.57;;;;;;;17.96;74.16;100274.78;6174481;23;20024;-96
2022/08/10 03:54:36;;;;;;;14.82;7.72;;;;;;;17.88;74.33;100253.53;6176435;23;20013;-87
2022/08/10 03:57:05;;;;;;;16.27;8.07;;;;;;;17.78;73.85;100254.75;6194047;23;20124;-89
2022/08/10 03:59:32;;;;;;;17.02;7.68;;;;;;;17.70;73.80;100253.66;6197457;23;20120;-93
2022/08/10 04:02:00;;;;;;;19.98;8.75;;;;;;;17.95;73.50;100284.25;6224654;23;20098;-88
2022/08/10 04:06:57;;;;;;;23.00;8.60;;;;;;;17.89;73.50;100261.50;6219856;23;20012;-96
2022/08/10 04:09:30;;;;;;;22.73;9.00;;;;;;;17.86;73.60;100247.53;6143826;23;20024;-86
2022/08/10 04:11:57;;;;;;;21.88;8.70;;;;;;;17.93;72.84;100237.53;6144762;23;20028;-85
2022/08/10 04:14:29;;;;;;;16.92;9.07;;;;;;;18.16;72.36;100273.94;6193060;23;20020;-88
2022/08/10 04:17:01;;;;;;;37.97;9.45;;;;;;;18.26;72.60;100275.47;6218997;23;20147;-85
2022/08/10 04:19:34;;;;;;;27.45;9.38;;;;;;;18.19;71.84;100266.94;6166935;23;20402;-86
2022/08/10 04:22:09;;;;;;;25.13;8.93;;;;;;;18.19;71.88;100258.63;6145129;23;20588;-93
2022/08/10 04:24:38;;;;;;;16.02;8.43;;;;;;;18.07;71.49;100251.06;6166022;23;20020;-95
2022/08/10 04:27:05;;;;;;;17.90;8.45;;;;;;;18.29;71.02;100281.13;6221060;22;20715;-94
2022/08/10 04:29:33;;;;;;;35.17;8.80;;;;;;;18.18;71.24;100260.59;6208977;22;19995;-88
2022/08/10 04:32:02;;;;;;;20.75;8.35;;;;;;;18.40;70.44;100289.81;6283825;22;20420;-94
2022/08/10 04:34:32;;;;;;;18.05;7.50;;;;;;;18.01;70.27;100210.94;6233754;22;20015;-91
2022/08/10 04:37:04;;;;;;;22.15;7.78;;;;;;;18.42;69.91;100279.22;6288285;22;20016;-94
2022/08/10 04:39:51;;;;;;;15.38;7.03;;;;;;;18.45;69.84;100300.69;6284202;22;20084;-96
2022/08/10 04:43:04;;;;;;;17.85;7.18;;;;;;;18.51;69.90;100304.84;6109658;23;20025;-88
2022/08/10 04:45:46;;;;;;;20.27;6.20;;;;;;;18.00;69.70;100235.03;6137215;23;20020;-96
2022/08/10 04:49:07;;;;;;;19.50;7.38;;;;;;;18.42;69.23;100295.03;6140004;23;20164;-89
2022/08/10 04:51:42;;;;;;;20.25;7.30;;;;;;;18.39;69.16;100288.19;6138360;23;20022;-96
2022/08/10 04:54:16;;;;;;;17.80;6.25;;;;;;;17.87;69.24;100210.44;6236860;22;20012;-89
2022/08/10 04:56:48;;;;;;;22.73;7.28;;;;;;;18.17;69.12;100258.13;6200359;23;20039;-86
2022/08/10 04:59:27;;;;;;;18.77;6.75;;;;;;;18.49;69.07;100309.13;6249443;23;20035;-88
2022/08/10 05:04:40;;;;;;;;;;;;;;;18.62;68.40;100308.00;6228244;22;20368;-86
2022/08/10 05:07:11;;;;;;;18.30;5.45;;;;;;;18.64;67.88;100289.09;6259518;22;19915;-88
2022/08/10 05:09:42;;;;;;;26.90;6.18;;;;;;;18.80;67.58;100297.53;6264458;22;20015;-86
2022/08/10 05:12:38;;;;;;;13.40;5.40;;;;;;;18.69;67.44;100276.97;6291332;22;20019;-88
2022/08/10 05:15:08;;;;;;;16.70;5.93;;;;;;;18.73;67.34;100264.06;6144756;23;20020;-86
2022/08/10 05:17:35;;;;;;;19.65;6.10;;;;;;;18.72;67.28;100235.56;6200107;23;20004;-87
2022/08/10 05:20:08;;;;;;;20.35;5.95;;;;;;;18.97;67.07;100274.34;6196671;23;20032;-88
2022/08/10 05:22:36;;;;;;;14.02;5.35;;;;;;;18.94;67.02;100275.03;6171519;23;20024;-92
2022/08/10 05:25:04;;;;;;;12.95;5.22;;;;;;;19.06;67.61;100282.56;6177555;23;20028;-95
2022/08/10 05:27:57;;;;;;;20.95;5.80;;;;;;;19.10;66.56;100266.84;6125751;23;20021;-87
2022/08/10 05:30:38;;;;;;;21.00;6.10;;;;;;;19.17;66.20;100267.06;6134953;23;20025;-94
2022/08/10 05:33:08;;;;;;;15.80;5.85;;;;;;;19.17;66.29;100267.91;6200087;23;20011;-86
2022/08/10 05:35:34;;;;;;;47.03;8.27;;;;;;;19.15;66.23;100241.69;6165129;23;20089;-88
2022/08/10 05:38:09;;;;;;;28.10;7.65;;;;;;;19.20;66.21;100249.75;6198573;23;20032;-85
2022/08/10 05:40:43;;;;;;;41.45;8.07;;;;;;;19.33;66.03;100259.66;6170756;23;20021;-93
2022/08/10 05:43:11;;;;;;;42.83;8.70;;;;;;;19.36;66.23;100263.72;6124575;23;20386;-85
2022/08/10 05:45:37;;;;;;;53.00;6.57;;;;;;;19.35;65.84;100259.31;6120499;23;19997;-88
2022/08/10 05:48:09;;;;;;;41.83;5.57;;;;;;;19.43;65.37;100261.94;6199182;23;20048;-87
2022/08/10 05:50:36;;;;;;;20.92;5.13;;;;;;;19.53;65.86;100273.72;6191028;23;20028;-85
2022/08/10 05:53:05;;;;;;;35.78;6.80;;;;;;;19.61;64.45;100279.16;6280567;22;20028;-87
2022/08/10 05:55:33;;;;;;;32.95;6.72;;;;;;;19.66;65.48;100280.91;6231056;22;20110;-91
2022/08/10 05:58:00;;;;;;;20.73;5.90;;;;;;;19.53;65.25;100246.00;6207856;22;20011;-89
2022/08/10 06:00:37;;;;;;;29.05;5.80;;;;;;;19.91;64.41;100289.97;6261130;22;20019;-89
2022/08/10 06:03:07;;;;;;;36.67;6.18;;;;;;;19.78;63.42;100258.66;6288706;22;20470;-86
2022/08/10 06:05:49;;;;;;;20.17;5.22;;;;;;;20.07;63.08;100276.94;6289081;22;20011;-84
2022/08/10 06:08:22;;;;;;;40.85;5.90;;;;;;;20.25;62.68;100291.31;6290428;22;19996;-86
2022/08/10 06:10:56;;;;;;;45.30;6.43;;;;;;;20.32;61.55;100293.50;6295925;22;20049;-94
2022/08/10 06:16:25;;;;;;;30.15;5.65;;;;;;;20.49;61.97;100292.34;6243873;22;20004;-87
2022/08/10 06:19:16;;;;;;;34.92;7.20;;;;;;;20.58;60.22;100306.91;6229499;23;20463;-93
2022/08/10 06:21:44;;;;;;;23.98;4.75;;;;;;;20.35;60.07;100253.91;6228551;23;20339;-86
2022/08/10 06:24:12;;;;;;;45.22;6.22;;;;;;;20.76;60.39;100307.38;6173482;23;20076;-88
2022/08/10 06:26:39;;;;;;;24.45;5.75;;;;;;;20.82;59.88;100295.63;6209039;23;20680;-96
2022/08/10 06:29:12;;;;;;;35.10;5.95;;;;;;;21.08;60.67;100317.34;6208658;23;20462;-90
2022/08/10 06:31:43;;;;;;;34.35;5.32;;;;;;;21.16;60.57;100326.69;6223261;23;20016;-90
2022/08/10 06:34:12;;;;;;;40.25;7.10;;;;;;;20.94;60.37;100280.06;6223893;23;20021;-91
2022/08/10 06:36:46;;;;;;;31.85;5.20;;;;;;;21.20;59.77;100326.78;6227707;23;20091;-95
2022/08/10 06:42:46;;;;;;;25.40;5.25;;;;;;;21.20;59.27;100329.56;6167744;23;20040;-89
2022/08/10 06:46:03;;;;;;;41.10;5.60;;;;;;;21.29;59.07;100339.31;6149528;23;20010;-90
2022/08/10 06:48:36;;;;;;;35.67;6.22;;;;;;;20.97;60.51;100282.13;6166498;23;20029;-88
2022/08/10 06:51:16;;;;;;;48.33;6.85;;;;;;;21.30;58.62;100337.34;6118555;23;20016;-88
2022/08/10 06:53:49;;;;;;;61.63;6.75;;;;;;;21.34;58.78;100316.81;6113647;23;20018;-94
2022/08/10 06:59:45;;;;;;;30.77;5.15;;;;;;;21.42;57.14;100294.72;6071047;23;20106;-95
2022/08/10 07:02:29;;;;;;;21.10;4.22;;;;;;;21.79;57.52;100334.13;6076062;23;20025;-94
2022/08/10 07:05:07;;;;;;;9.27;3.88;;;;;;;21.21;56.89;100251.31;6067921;23;20465;-89
2022/08/10 07:07:41;;;;;;;33.63;4.90;;;;;;;21.77;57.18;100331.69;6043128;23;20023;-90
2022/08/10 07:10:09;;;;;;;31.33;6.38;;;;;;;21.58;58.18;100292.69;6041387;23;20057;-90
2022/08/10 07:12:42;;;;;;;45.13;6.07;;;;;;;21.29;56.70;100255.06;6041643;23;20473;-92
2022/08/10 07:15:24;;;;;;;44.30;6.25;;;;;;;21.69;54.82;100293.75;6044476;23;20018;-91
2022/08/10 07:17:52;;;;;;;77.22;10.65;;;;;;;21.57;56.50;100257.72;6067237;23;20018;-89
2022/08/10 07:20:19;;;;;;;73.18;7.97;;;;;;;21.85;54.96;100292.88;6099995;23;20045;-89
2022/08/10 07:22:51;;;;;;;71.65;7.28;;;;;;;21.90;55.57;100296.19;6128108;23;20021;-88
2022/08/10 07:25:23;;;;;;;28.23;4.30;;;;;;;22.05;53.49;100325.13;6102714;23;20073;-88
2022/08/10 07:27:54;;;;;;;17.25;3.97;;;;;;;21.85;54.13;100287.31;6101166;23;20487;-91
2022/08/10 07:30:28;;;;;;;58.53;12.65;;;;;;;21.90;54.46;100292.59;6124298;23;20077;-91
2022/08/10 07:33:00;;;;;;;39.22;5.65;;;;;;;22.11;54.89;100326.44;6100902;23;20049;-91
2022/08/10 07:35:30;;;;;;;21.38;4.20;;;;;;;21.94;54.82;100305.41;6126387;23;20027;-93
2022/08/10 07:38:24;;;;;;;62.67;8.98;;;;;;;22.02;54.49;100337.03;6172098;23;20023;-90
2022/08/10 07:41:14;;;;;;;36.20;6.55;;;;;;;21.62;53.96;100271.31;6203872;23;20075;-92
2022/08/10 07:43:42;;;;;;;30.98;5.57;;;;;;;21.62;53.32;100254.63;6171179;23;20020;-92
2022/08/10 07:46:14;;;;;;;50.70;7.15;;;;;;;21.81;53.31;100273.31;6171214;23;20020;-90
2022/08/10 07:48:45;;;;;;;111.88;13.43;;;;;;;22.25;54.78;100320.38;6197355;23;20023;-91
2022/08/10 07:51:12;;;;;;;47.25;7.28;;;;;;;22.18;55.68;100265.34;6247098;23;20016;-93
2022/08/10 07:54:35;;;;;;;26.42;3.83;;;;;;;22.52;52.14;100324.13;6248261;23;20484;-92
2022/08/10 07:57:04;;;;;;;28.00;4.85;;;;;;;22.38;53.30;100290.41;6196665;23;20461;-90
2022/08/10 07:59:44;;;;;;;28.38;5.00;;;;;;;22.40;52.88;100311.16;6222873;23;20079;-96
2022/08/10 08:02:40;;;;;;;14.07;4.40;;;;;;;22.31;54.21;100324.50;6195571;23;20023;-93
2022/08/10 08:05:12;;;;;;;16.88;4.40;;;;;;;22.17;52.88;100307.50;6171332;23;20024;-91
2022/08/10 08:07:41;;;;;;;32.65;4.30;;;;;;;22.04;53.14;100292.91;6220084;23;20027;-93
2022/08/10 08:10:12;;;;;;;12.82;3.72;;;;;;;22.02;52.13;100309.97;6194586;23;20069;-88
2022/08/10 08:12:40;;;;;;;19.85;4.53;;;;;;;22.01;54.44;100313.91;6195654;23;20027;-91
2022/08/10 08:15:10;;;;;;;21.75;4.72;;;;;;;21.91;52.86;100294.22;6185734;23;20024;-94
2022/08/10 08:20:50;;;;;;;29.70;5.53;;;;;;;21.67;53.71;100279.41;6220973;23;20443;-92
2022/08/10 08:23:36;;;;;;;21.77;4.95;;;;;;;21.75;53.15;100303.41;6217069;23;20047;-92
2022/08/10 08:26:04;;;;;;;;;;;;;;;21.94;54.41;100324.09;6191306;23;20016;-91
2022/08/10 08:28:34;;;;;;;48.70;6.20;;;;;;;22.05;54.41;100314.81;6190119;23;19999;-93
2022/08/10 08:31:01;;;;;;;28.13;5.30;;;;;;;21.94;52.75;100315.75;6189876;23;20116;-91
2022/08/10 08:33:28;;;;;;;21.33;5.10;;;;;;;21.90;52.57;100306.53;6187044;23;20497;-91
2022/08/10 08:36:02;;;;;;;18.33;4.60;;;;;;;21.56;53.38;100254.13;6164635;23;20023;-93
2022/08/10 08:38:29;;;;;;;17.75;4.97;;;;;;;21.87;52.99;100294.13;6189679;23;20020;-92
2022/08/10 08:41:33;;;;;;;18.95;5.22;;;;;;;22.03;52.37;100310.78;6188603;23;20017;-90
2022/08/10 08:44:10;;;;;;;37.28;6.70;;;;;;;21.92;51.47;100306.94;6189687;23;20020;-92
2022/08/10 08:46:56;;;;;;;15.85;4.05;;;;;;;22.08;51.08;100309.66;6215556;23;20064;-94
2022/08/10 08:49:44;;;;;;;28.75;4.60;;;;;;;22.14;50.92;100303.44;6163982;23;20020;-91
2022/08/10 08:52:33;;;;;;;24.40;5.97;;;;;;;22.01;50.50;100276.91;6164613;23;20020;-91
2022/08/10 08:55:55;;;;;;;33.97;5.72;;;;;;;22.42;49.38;100302.44;6191401;23;20067;-93
2022/08/10 08:58:33;;;;;;;24.02;5.75;;;;;;;22.54;49.40;100299.47;6102684;23;20474;-92
2022/08/10 09:01:27;;;;;;;26.77;4.38;;;;;;;22.57;50.22;100297.91;6192965;23;20100;-90
2022/08/10 09:04:03;;;;;;;33.45;4.35;;;;;;;22.54;46.82;100285.53;6192952;23;20461;-94
2022/08/10 09:07:06;;;;;;;24.08;3.85;;;;;;;22.63;46.72;100307.59;6166539;23;20024;-91
2022/08/10 09:09:47;;;;;;;38.20;6.13;;;;;;;22.66;46.78;100306.84;6165083;23;20021;-91
2022/08/10 09:12:44;;;;;;;19.60;3.75;;;;;;;22.37;46.92;100272.88;6215367;23;20036;-90
2022/08/10 09:15:39;;;;;;;30.85;4.45;;;;;;;22.43;47.86;100287.31;6164711;23;20248;-92
2022/08/10 09:18:24;;;;;;;17.13;3.47;;;;;;;22.57;47.01;100289.56;6214487;23;20161;-91
2022/08/10 09:24:25;;;;;;;30.42;5.30;;;;;;;22.49;47.03;100294.22;6215966;23;20096;-91
2022/08/10 09:26:53;;;;;;;38.85;4.70;;;;;;;22.58;49.06;100277.22;6217957;23;20022;-94
2022/08/10 09:29:38;;;;;;;33.15;4.78;;;;;;;22.23;49.32;100189.06;6191674;23;20035;-91
2022/08/10 09:32:37;;;;;;;18.10;4.80;;;;;;;22.47;47.62;100238.84;6168930;23;20023;-92
2022/08/10 09:36:11;;;;;;;14.70;3.50;;;;;;;22.61;47.00;100279.28;6215694;23;20016;-95
2022/08/10 09:39:37;;;;;;;37.30;4.68;;;;;;;22.75;47.44;100277.56;6166618;23;20048;-93
2022/08/10 09:42:40;;;;;;;12.75;3.92;;;;;;;22.90;46.17;100286.97;6193474;23;20689;-94
2022/08/10 09:45:40;;;;;;;9.88;3.20;;;;;;;22.91;46.37;100290.53;6168395;23;20103;-90
2022/08/10 09:48:22;;;;;;;12.45;3.35;;;;;;;23.09;46.84;100290.88;6169983;23;20103;-93
2022/08/10 09:51:25;;;;;;;15.85;4.22;;;;;;;23.15;45.21;100281.81;6169474;23;20020;-92
2022/08/10 09:54:34;;;;;;;8.30;3.33;;;;;;;23.28;45.73;100293.59;6225931;23;20016;-92
2022/08/10 09:57:45;;;;;;;11.63;3.10;;;;;;;23.37;47.40;100284.94;6192693;23;20099;-94
2022/08/10 10:00:29;;;;;;;31.77;3.65;;;;;;;22.84;47.65;100196.44;6222623;23;20111;-95
2022/08/10 10:03:54;;;;;;;12.50;3.20;;;;;;;23.56;47.00;100295.19;6225187;23;20032;-93
2022/08/10 10:07:02;;;;;;;11.77;3.63;;;;;;;23.34;45.03;100232.66;6111129;22;20097;-92
2022/08/10 10:09:58;;;;;;;9.88;3.50;;;;;;;23.57;45.46;100277.25;6108537;23;20028;-94
2022/08/10 10:12:31;;;;;;;5.05;3.20;;;;;;;23.41;47.31;100288.56;6140553;23;20044;-92
2022/08/10 10:16:07;;;;;;;15.63;3.75;;;;;;;23.06;46.07;100233.88;6101535;23;20033;-93
2022/08/10 10:18:33;;;;;;;;;;;;;;;23.44;47.78;100280.28;6056364;23;20019;-93
2022/08/10 10:22:02;;;;;;;19.30;3.85;;;;;;;23.50;47.22;100283.53;6054865;23;19920;-94
2022/08/10 10:25:05;;;;;;;6.32;2.80;;;;;;;23.49;47.43;100278.34;6032832;23;20025;-92
2022/08/10 10:28:05;;;;;;;14.85;3.78;;;;;;;23.54;47.37;100278.00;6027199;23;20020;-94
2022/08/10 10:31:34;;;;;;;20.83;8.18;;;;;;;23.52;47.71;100272.81;6010697;23;19999;-94
2022/08/10 10:34:54;;;;;;;10.23;4.00;;;;;;;23.19;47.99;100212.94;6035989;23;20015;-95
2022/08/10 10:37:46;;;;;;;6.35;3.00;;;;;;;23.52;44.81;100280.38;6025767;23;20023;-91
2022/08/10 10:54:21;;;;;;;10.80;2.97;;;;;;;23.25;45.58;100196.69;6166782;23;20028;-96
2022/08/10 10:57:09;;;;;;;11.43;3.35;;;;;;;23.79;45.95;100264.41;6124885;23;20109;-89
2022/08/10 10:59:54;;;;;;;9.45;3.33;;;;;;;23.25;46.17;100168.00;6111497;23;20031;-91
2022/08/10 11:02:53;;;;;;;14.35;3.35;;;;;;;23.67;44.37;100231.91;6141112;23;20028;-95
2022/08/10 11:17:07;;;;;;;18.13;3.55;;;;;;;23.87;45.72;100266.09;6242411;22;20106;-94
2022/08/10 11:19:57;;;;;;;17.77;3.42;;;;;;;23.74;45.36;100245.19;6208483;22;20023;-94
2022/08/10 11:22:38;;;;;;;16.35;3.60;;;;;;;23.66;45.02;100219.94;6234623;22;20025;-95
2022/08/10 11:26:22;;;;;;;27.67;4.63;;;;;;;23.45;45.03;100169.44;6268046;22;20077;-95
2022/08/10 11:29:29;;;;;;;27.40;4.10;;;;;;;23.59;45.80;100197.53;6230866;22;20020;-95
2022/08/10 11:32:16;;;;;;;21.17;3.65;;;;;;;24.03;45.30;100260.31;6202922;22;20022;-91
2022/08/10 11:35:26;;;;;;;21.33;3.70;;;;;;;23.82;45.79;100228.16;6211274;23;20051;-91
2022/08/10 11:46:07;;;;;;;22.35;4.47;;;;;;;24.14;44.43;100258.47;6228189;23;20027;-94
2022/08/10 11:52:53;;;;;;;29.48;4.85;;;;;;;24.26;45.77;100254.56;6203947;23;20019;-92
2022/08/10 11:56:02;;;;;;;22.60;3.92;;;;;;;24.34;45.72;100236.72;6093360;23;20024;-94
2022/08/10 12:01:36;;;;;;;27.25;4.07;;;;;;;24.13;43.50;100200.97;6108126;23;20019;-93
2022/08/10 12:04:07;;;;;;;76.03;10.02;;;;;;;23.85;43.37;100182.72;6114223;23;20025;-93
2022/08/10 12:06:38;;;;;;;30.23;4.88;;;;;;;23.77;45.74;100175.44;6142955;23;20021;-91
2022/08/10 12:09:30;;;;;;;27.25;4.70;;;;;;;24.29;45.91;100251.81;6149693;23;20017;-94
2022/08/10 12:13:02;;;;;;;34.75;5.65;;;;;;;24.34;43.37;100261.88;6200231;23;20059;-95
2022/08/10 12:15:54;;;;;;;932.92;101.32;;;;;;;24.46;44.27;100256.00;6250489;23;20016;-94
2022/08/10 12:18:45;;;;;;;110.30;12.45;;;;;;;24.45;43.82;100256.41;6247673;23;20070;-92
2022/08/10 12:30:37;;;;;;;46.25;5.10;;;;;;;24.36;43.51;100251.09;6250841;23;20020;-93
2022/08/10 12:33:18;;;;;;;40.50;4.93;;;;;;;24.52;42.74;100273.25;6223977;23;20024;-94
2022/08/10 12:36:33;;;;;;;31.30;5.25;;;;;;;24.60;42.90;100258.97;6246885;23;20357;-93
2022/08/10 12:39:39;;;;;;;8.65;3.58;;;;;;;24.57;41.10;100256.94;6163969;23;20028;-95
2022/08/10 13:56:12;;;;;;;22.48;3.60;;;;;;;25.78;38.37;100239.38;6209141;23;20096;-94
2022/08/10 14:02:17;;;;;;;16.52;3.35;;;;;;;25.03;38.32;100161.41;6314506;22;20039;-96
2022/08/10 14:06:11;;;;;;;13.68;2.97;;;;;;;25.20;40.17;100237.47;6263944;22;20011;-96
2022/08/10 14:25:19;;;;;;;23.25;9.45;;;;;;;25.49;38.07;100225.22;6288642;22;20027;-96
2022/08/10 14:27:49;;;;;;;32.72;6.70;;;;;;;25.52;39.73;100232.84;6201866;22;20040;-92
2022/08/10 14:31:09;;;;;;;38.38;7.07;;;;;;;25.33;39.62;100235.97;6192214;22;20484;-96
2022/08/10 14:34:15;;;;;;;;;;;;;;;;;;;;;
2022/08/10 14:41:00;;;;;;;38.25;4.10;;;;;;;24.78;39.23;100242.34;6293206;22;20023;-95
2022/08/10 14:50:00;;;;;;;318.48;33.85;;;;;;;24.83;39.43;100154.47;6260987;22;20028;-95
2022/08/10 15:06:39;;;;;;;27.48;4.22;;;;;;;24.96;40.76;100255.66;6288126;22;20031;-95
2022/08/10 15:17:35;;;;;;;123.38;13.70;;;;;;;24.29;45.98;100256.63;6077435;23;20019;-95
2022/08/10 15:23:31;;;;;;;133.88;16.15;;;;;;;23.57;45.75;100169.19;6087714;22;20020;-94
2022/08/10 15:40:01;;;;;;;16.17;4.88;;;;;;;23.98;46.08;100249.50;6187319;23;20022;-93
2022/08/10 15:46:56;;;;;;;20.15;4.53;;;;;;;23.74;42.86;100261.94;6192317;23;19997;-94
2022/08/10 15:50:00;;;;;;;;;;;;;;;;;;;;;
2022/08/10 15:55:51;;;;;;;56.22;8.30;;;;;;;23.54;44.68;100262.06;6189674;23;20021;-93
2022/08/10 15:58:49;;;;;;;64.57;9.57;;;;;;;23.49;44.88;100258.81;6132071;23;20029;-92
2022/08/10 16:09:39;;;;;;;71.20;10.82;;;;;;;23.10;46.07;100276.56;6040519;23;20022;-94
2022/08/10 16:12:20;;;;;;;;;;;;;;;23.06;47.06;100284.06;6011766;23;20023;-92
2022/08/10 16:14:49;;;;;;;44.55;9.63;;;;;;;22.70;48.02;100236.03;6011125;23;19918;-94
2022/08/10 16:17:19;;;;;;;39.15;5.68;;;;;;;22.98;51.09;100293.50;5964243;23;20019;-93
2022/08/10 16:20:04;;;;;;;29.42;5.75;;;;;;;22.56;50.38;100235.00;5986067;23;20374;-95
2022/08/10 16:22:33;;;;;;;239.85;29.50;;;;;;;22.47;47.70;100226.88;6011282;23;20096;-93
2022/08/10 16:25:01;;;;;;;277.88;32.13;;;;;;;22.79;50.20;100288.78;6209061;22;20027;-91
2022/08/10 16:27:33;;;;;;;223.20;27.45;;;;;;;22.53;52.22;100258.84;6285735;22;20432;-92